sensor_id;sensor_type;location;lat;lon;timestamp;P1;durP1;ratioP1;P2;durP2;ratioP2
29422;SDS011;16399;51.686;8.684;2022-10-16T00:02:51;5.17;;;1.82;;
29422;SDS011;16399;51.686;8.684;2022-10-16T00:05:53;3.55;;;1.90;;
29422;SDS011;16399;51.686;8.684;2022-10-16T00:08:57;4.47;;;1.80;;
29422;SDS011;16399;51.686;8.684;2022-10-16T00:11:59;7.03;;;1.80;;
29422;SDS011;16399;51.686;8.684;2022-10-16T00:15:03;5.80;;;1.97;;
29422;SDS011;16399;51.686;8.684;2022-10-16T00:18:06;4.35;;;1.60;;
29422;SDS011;16399;51.686;8.684;2022-10-16T00:21:17;6.40;;;2.00;;
29422;SDS011;16399;51.686;8.684;2022-10-16T00:24:17;7.78;;;2.27;;
29422;SDS011;16399;51.686;8.684;2022-10-16T00:27:19;3.45;;;1.92;;
29422;SDS011;16399;51.686;8.684;2022-10-16T00:30:21;5.83;;;2.22;;
29422;SDS011;16399;51.686;8.684;2022-10-16T00:33:24;5.12;;;1.40;;
29422;SDS011;16399;51.686;8.684;2022-10-16T00:36:27;3.77;;;1.95;;
29422;SDS011;16399;51.686;8.684;2022-10-16T00:39:29;4.65;;;2.05;;
29422;SDS011;16399;51.686;8.684;2022-10-16T00:42:32;4.78;;;2.27;;
29422;SDS011;16399;51.686;8.684;2022-10-16T00:45:34;5.08;;;2.08;;
29422;SDS011;16399;51.686;8.684;2022-10-16T00:48:36;4.78;;;2.17;;
29422;SDS011;16399;51.686;8.684;2022-10-16T00:51:44;7.47;;;2.55;;
29422;SDS011;16399;51.686;8.684;2022-10-16T00:54:47;4.92;;;2.40;;
29422;SDS011;16399;51.686;8.684;2022-10-16T00:57:51;6.20;;;2.30;;
29422;SDS011;16399;51.686;8.684;2022-10-16T01:00:54;3.90;;;1.80;;
29422;SDS011;16399;51.686;8.684;2022-10-16T01:03:56;5.37;;;2.37;;
29422;SDS011;16399;51.686;8.684;2022-10-16T01:13:38;6.60;;;1.90;;
29422;SDS011;16399;51.686;8.684;2022-10-16T01:16:43;6.62;;;2.12;;
29422;SDS011;16399;51.686;8.684;2022-10-16T01:19:52;5.90;;;2.05;;
29422;SDS011;16399;51.686;8.684;2022-10-16T01:23:07;6.37;;;2.25;;
29422;SDS011;16399;51.686;8.684;2022-10-16T01:26:14;7.45;;;1.90;;
29422;SDS011;16399;51.686;8.684;2022-10-16T01:29:20;4.90;;;1.92;;
29422;SDS011;16399;51.686;8.684;2022-10-16T01:32:28;4.72;;;1.70;;
29422;SDS011;16399;51.686;8.684;2022-10-16T01:35:38;5.37;;;1.82;;
29422;SDS011;16399;51.686;8.684;2022-10-16T01:38:43;7.97;;;1.82;;
29422;SDS011;16399;51.686;8.684;2022-10-16T01:41:59;3.40;;;1.72;;
29422;SDS011;16399;51.686;8.684;2022-10-16T01:44:59;3.77;;;1.70;;
29422;SDS011;16399;51.686;8.684;2022-10-16T01:48:04;7.47;;;1.60;;
29422;SDS011;16399;51.686;8.684;2022-10-16T01:51:10;6.22;;;1.40;;
29422;SDS011;16399;51.686;8.684;2022-10-16T01:54:15;5.65;;;1.40;;
29422;SDS011;16399;51.686;8.684;2022-10-16T01:57:20;6.25;;;2.02;;
29422;SDS011;16399;51.686;8.684;2022-10-16T02:00:25;3.95;;;1.52;;
29422;SDS011;16399;51.686;8.684;2022-10-16T02:03:29;3.17;;;1.17;;
29422;SDS011;16399;51.686;8.684;2022-10-16T02:09:36;8.43;;;1.20;;
29422;SDS011;16399;51.686;8.684;2022-10-16T02:12:40;3.98;;;1.32;;
29422;SDS011;16399;51.686;8.684;2022-10-16T02:15:44;2.67;;;1.12;;
29422;SDS011;16399;51.686;8.684;2022-10-16T02:18:47;4.47;;;1.20;;
29422;SDS011;16399;51.686;8.684;2022-10-16T02:21:55;5.65;;;1.17;;
29422;SDS011;16399;51.686;8.684;2022-10-16T02:24:58;3.85;;;1.10;;
29422;SDS011;16399;51.686;8.684;2022-10-16T02:31:16;3.85;;;0.90;;
29422;SDS011;16399;51.686;8.684;2022-10-16T02:34:19;4.92;;;1.20;;
29422;SDS011;16399;51.686;8.684;2022-10-16T02:37:23;4.35;;;1.27;;
29422;SDS011;16399;51.686;8.684;2022-10-16T02:40:27;4.67;;;1.45;;
29422;SDS011;16399;51.686;8.684;2022-10-16T02:43:29;3.70;;;1.60;;
29422;SDS011;16399;51.686;8.684;2022-10-16T02:46:33;5.07;;;1.30;;
29422;SDS011;16399;51.686;8.684;2022-10-16T02:49:36;6.03;;;1.17;;
29422;SDS011;16399;51.686;8.684;2022-10-16T02:52:38;2.55;;;0.90;;
29422;SDS011;16399;51.686;8.684;2022-10-16T02:55:41;8.15;;;1.10;;
29422;SDS011;16399;51.686;8.684;2022-10-16T02:58:43;4.97;;;0.98;;
29422;SDS011;16399;51.686;8.684;2022-10-16T03:01:45;3.27;;;1.20;;
29422;SDS011;16399;51.686;8.684;2022-10-16T03:04:48;4.42;;;1.20;;
29422;SDS011;16399;51.686;8.684;2022-10-16T03:07:50;2.62;;;0.93;;
29422;SDS011;16399;51.686;8.684;2022-10-16T03:10:53;1.57;;;0.70;;
29422;SDS011;16399;51.686;8.684;2022-10-16T03:13:55;8.10;;;1.00;;
29422;SDS011;16399;51.686;8.684;2022-10-16T03:16:57;2.62;;;0.90;;
29422;SDS011;16399;51.686;8.684;2022-10-16T03:20:00;4.72;;;1.07;;
29422;SDS011;16399;51.686;8.684;2022-10-16T03:23:02;6.20;;;1.17;;
29422;SDS011;16399;51.686;8.684;2022-10-16T03:26:04;2.15;;;0.80;;
29422;SDS011;16399;51.686;8.684;2022-10-16T03:29:07;4.67;;;0.90;;
29422;SDS011;16399;51.686;8.684;2022-10-16T03:32:09;2.65;;;0.90;;
29422;SDS011;16399;51.686;8.684;2022-10-16T03:35:12;4.67;;;1.40;;
29422;SDS011;16399;51.686;8.684;2022-10-16T03:38:14;1.92;;;0.90;;
29422;SDS011;16399;51.686;8.684;2022-10-16T03:41:16;3.87;;;0.90;;
29422;SDS011;16399;51.686;8.684;2022-10-16T03:44:19;2.00;;;0.90;;
29422;SDS011;16399;51.686;8.684;2022-10-16T03:47:22;3.67;;;0.90;;
29422;SDS011;16399;51.686;8.684;2022-10-16T03:50:24;4.67;;;0.90;;
29422;SDS011;16399;51.686;8.684;2022-10-16T03:53:26;3.08;;;1.15;;
29422;SDS011;16399;51.686;8.684;2022-10-16T03:56:29;5.53;;;1.07;;
29422;SDS011;16399;51.686;8.684;2022-10-16T03:59:31;6.50;;;1.32;;
29422;SDS011;16399;51.686;8.684;2022-10-16T04:02:33;3.90;;;1.00;;
29422;SDS011;16399;51.686;8.684;2022-10-16T04:05:35;4.35;;;1.20;;
29422;SDS011;16399;51.686;8.684;2022-10-16T04:08:38;2.87;;;1.02;;
29422;SDS011;16399;51.686;8.684;2022-10-16T04:11:42;4.43;;;1.10;;
29422;SDS011;16399;51.686;8.684;2022-10-16T04:14:44;4.65;;;1.10;;
29422;SDS011;16399;51.686;8.684;2022-10-16T04:17:47;3.33;;;1.20;;
29422;SDS011;16399;51.686;8.684;2022-10-16T04:20:49;3.37;;;1.00;;
29422;SDS011;16399;51.686;8.684;2022-10-16T04:23:51;2.87;;;0.80;;
29422;SDS011;16399;51.686;8.684;2022-10-16T04:26:53;5.72;;;1.10;;
29422;SDS011;16399;51.686;8.684;2022-10-16T04:29:56;2.37;;;1.00;;
29422;SDS011;16399;51.686;8.684;2022-10-16T04:32:58;4.30;;;1.07;;
29422;SDS011;16399;51.686;8.684;2022-10-16T04:36:01;1.98;;;0.90;;
29422;SDS011;16399;51.686;8.684;2022-10-16T04:39:04;3.50;;;1.15;;
29422;SDS011;16399;51.686;8.684;2022-10-16T04:42:06;4.30;;;1.00;;
29422;SDS011;16399;51.686;8.684;2022-10-16T04:45:09;2.20;;;0.80;;
29422;SDS011;16399;51.686;8.684;2022-10-16T04:48:11;1.50;;;0.90;;
29422;SDS011;16399;51.686;8.684;2022-10-16T04:51:14;2.52;;;0.90;;
29422;SDS011;16399;51.686;8.684;2022-10-16T04:54:16;3.10;;;0.98;;
29422;SDS011;16399;51.686;8.684;2022-10-16T04:57:18;4.12;;;0.90;;
29422;SDS011;16399;51.686;8.684;2022-10-16T05:00:21;3.58;;;0.90;;
29422;SDS011;16399;51.686;8.684;2022-10-16T05:03:23;4.22;;;0.88;;
29422;SDS011;16399;51.686;8.684;2022-10-16T05:06:25;2.72;;;0.82;;
29422;SDS011;16399;51.686;8.684;2022-10-16T05:09:27;2.27;;;0.95;;
29422;SDS011;16399;51.686;8.684;2022-10-16T05:12:30;1.90;;;0.82;;
29422;SDS011;16399;51.686;8.684;2022-10-16T05:15:32;3.60;;;0.85;;
29422;SDS011;16399;51.686;8.684;2022-10-16T05:18:34;2.90;;;1.07;;
29422;SDS011;16399;51.686;8.684;2022-10-16T05:21:37;6.03;;;1.20;;
29422;SDS011;16399;51.686;8.684;2022-10-16T05:24:39;1.98;;;1.00;;
29422;SDS011;16399;51.686;8.684;2022-10-16T05:27:41;4.35;;;1.35;;
29422;SDS011;16399;51.686;8.684;2022-10-16T05:30:44;3.00;;;0.78;;
29422;SDS011;16399;51.686;8.684;2022-10-16T05:33:46;3.00;;;0.80;;
29422;SDS011;16399;51.686;8.684;2022-10-16T05:36:49;5.72;;;1.02;;
29422;SDS011;16399;51.686;8.684;2022-10-16T05:39:51;2.83;;;0.98;;
29422;SDS011;16399;51.686;8.684;2022-10-16T05:42:56;2.08;;;0.90;;
29422;SDS011;16399;51.686;8.684;2022-10-16T05:46:03;4.60;;;0.90;;
29422;SDS011;16399;51.686;8.684;2022-10-16T05:49:06;3.83;;;0.90;;
29422;SDS011;16399;51.686;8.684;2022-10-16T05:52:09;3.75;;;0.82;;
29422;SDS011;16399;51.686;8.684;2022-10-16T05:55:11;1.55;;;0.70;;
29422;SDS011;16399;51.686;8.684;2022-10-16T05:58:13;3.12;;;1.00;;
29422;SDS011;16399;51.686;8.684;2022-10-16T06:01:17;4.42;;;0.70;;
29422;SDS011;16399;51.686;8.684;2022-10-16T06:04:21;1.40;;;0.85;;
29422;SDS011;16399;51.686;8.684;2022-10-16T06:07:23;1.20;;;0.70;;
29422;SDS011;16399;51.686;8.684;2022-10-16T06:10:25;2.50;;;1.07;;
29422;SDS011;16399;51.686;8.684;2022-10-16T06:13:29;5.80;;;0.80;;
29422;SDS011;16399;51.686;8.684;2022-10-16T06:16:32;1.10;;;0.70;;
29422;SDS011;16399;51.686;8.684;2022-10-16T06:19:38;1.67;;;0.65;;
29422;SDS011;16399;51.686;8.684;2022-10-16T06:22:40;1.52;;;0.75;;
29422;SDS011;16399;51.686;8.684;2022-10-16T06:25:42;2.77;;;0.70;;
29422;SDS011;16399;51.686;8.684;2022-10-16T06:28:45;2.20;;;0.85;;
29422;SDS011;16399;51.686;8.684;2022-10-16T06:31:47;6.40;;;1.22;;
29422;SDS011;16399;51.686;8.684;2022-10-16T06:34:50;3.65;;;0.80;;
29422;SDS011;16399;51.686;8.684;2022-10-16T06:37:55;2.45;;;0.93;;
29422;SDS011;16399;51.686;8.684;2022-10-16T06:40:57;1.32;;;0.80;;
29422;SDS011;16399;51.686;8.684;2022-10-16T06:44:00;1.75;;;0.90;;
29422;SDS011;16399;51.686;8.684;2022-10-16T06:47:02;0.90;;;0.70;;
29422;SDS011;16399;51.686;8.684;2022-10-16T06:50:05;1.05;;;0.70;;
29422;SDS011;16399;51.686;8.684;2022-10-16T06:53:08;2.10;;;0.70;;
29422;SDS011;16399;51.686;8.684;2022-10-16T06:56:11;2.45;;;0.88;;
29422;SDS011;16399;51.686;8.684;2022-10-16T06:59:18;2.67;;;0.80;;
29422;SDS011;16399;51.686;8.684;2022-10-16T07:02:20;1.27;;;0.70;;
29422;SDS011;16399;51.686;8.684;2022-10-16T07:05:22;4.87;;;0.90;;
29422;SDS011;16399;51.686;8.684;2022-10-16T07:08:24;4.70;;;0.88;;
29422;SDS011;16399;51.686;8.684;2022-10-16T07:11:27;2.42;;;0.75;;
29422;SDS011;16399;51.686;8.684;2022-10-16T07:14:29;2.70;;;0.70;;
29422;SDS011;16399;51.686;8.684;2022-10-16T07:17:32;0.90;;;0.70;;
29422;SDS011;16399;51.686;8.684;2022-10-16T07:20:34;1.80;;;0.80;;
29422;SDS011;16399;51.686;8.684;2022-10-16T07:23:38;2.83;;;1.10;;
29422;SDS011;16399;51.686;8.684;2022-10-16T07:26:42;1.00;;;0.70;;
29422;SDS011;16399;51.686;8.684;2022-10-16T07:29:45;1.45;;;0.70;;
29422;SDS011;16399;51.686;8.684;2022-10-16T07:32:47;3.42;;;0.78;;
29422;SDS011;16399;51.686;8.684;2022-10-16T07:35:51;3.92;;;0.70;;
29422;SDS011;16399;51.686;8.684;2022-10-16T07:38:54;2.20;;;0.68;;
29422;SDS011;16399;51.686;8.684;2022-10-16T07:41:56;2.77;;;0.80;;
29422;SDS011;16399;51.686;8.684;2022-10-16T07:44:58;1.35;;;0.60;;
29422;SDS011;16399;51.686;8.684;2022-10-16T07:48:01;2.45;;;0.88;;
29422;SDS011;16399;51.686;8.684;2022-10-16T07:51:04;1.35;;;0.72;;
29422;SDS011;16399;51.686;8.684;2022-10-16T07:54:08;5.08;;;0.70;;
29422;SDS011;16399;51.686;8.684;2022-10-16T07:57:11;2.17;;;0.70;;
29422;SDS011;16399;51.686;8.684;2022-10-16T08:00:15;3.02;;;0.80;;
29422;SDS011;16399;51.686;8.684;2022-10-16T08:03:17;2.30;;;0.85;;
29422;SDS011;16399;51.686;8.684;2022-10-16T08:06:20;1.40;;;0.70;;
29422;SDS011;16399;51.686;8.684;2022-10-16T08:09:23;1.77;;;0.60;;
29422;SDS011;16399;51.686;8.684;2022-10-16T08:12:25;2.80;;;0.65;;
29422;SDS011;16399;51.686;8.684;2022-10-16T08:15:28;2.17;;;0.70;;
29422;SDS011;16399;51.686;8.684;2022-10-16T08:18:30;1.75;;;0.80;;
29422;SDS011;16399;51.686;8.684;2022-10-16T08:21:33;1.60;;;0.62;;
29422;SDS011;16399;51.686;8.684;2022-10-16T08:24:35;3.67;;;0.98;;
29422;SDS011;16399;51.686;8.684;2022-10-16T08:27:37;1.90;;;0.60;;
29422;SDS011;16399;51.686;8.684;2022-10-16T08:30:40;3.50;;;0.65;;
29422;SDS011;16399;51.686;8.684;2022-10-16T08:33:43;1.77;;;0.78;;
29422;SDS011;16399;51.686;8.684;2022-10-16T08:36:47;1.10;;;0.70;;
29422;SDS011;16399;51.686;8.684;2022-10-16T08:39:50;2.87;;;0.90;;
29422;SDS011;16399;51.686;8.684;2022-10-16T08:46:15;4.25;;;0.60;;
29422;SDS011;16399;51.686;8.684;2022-10-16T08:49:23;2.47;;;0.82;;
29422;SDS011;16399;51.686;8.684;2022-10-16T08:52:28;2.25;;;0.70;;
29422;SDS011;16399;51.686;8.684;2022-10-16T08:58:36;1.05;;;0.50;;
29422;SDS011;16399;51.686;8.684;2022-10-16T09:01:40;3.25;;;0.70;;
29422;SDS011;16399;51.686;8.684;2022-10-16T09:11:14;2.87;;;0.80;;
29422;SDS011;16399;51.686;8.684;2022-10-16T09:14:32;1.77;;;0.60;;
29422;SDS011;16399;51.686;8.684;2022-10-16T09:24:15;1.82;;;0.72;;
29422;SDS011;16399;51.686;8.684;2022-10-16T09:27:19;2.45;;;0.80;;
29422;SDS011;16399;51.686;8.684;2022-10-16T09:30:21;1.65;;;0.72;;
29422;SDS011;16399;51.686;8.684;2022-10-16T09:33:25;1.92;;;1.00;;
29422;SDS011;16399;51.686;8.684;2022-10-16T09:36:29;3.12;;;1.40;;
29422;SDS011;16399;51.686;8.684;2022-10-16T09:39:44;2.62;;;1.07;;
29422;SDS011;16399;51.686;8.684;2022-10-16T09:42:48;2.30;;;1.10;;
29422;SDS011;16399;51.686;8.684;2022-10-16T09:45:55;2.90;;;1.10;;
29422;SDS011;16399;51.686;8.684;2022-10-16T09:49:03;2.62;;;0.95;;
29422;SDS011;16399;51.686;8.684;2022-10-16T09:52:26;3.25;;;1.05;;
29422;SDS011;16399;51.686;8.684;2022-10-16T09:55:28;3.08;;;1.40;;
29422;SDS011;16399;51.686;8.684;2022-10-16T09:58:31;2.70;;;1.30;;
29422;SDS011;16399;51.686;8.684;2022-10-16T10:01:40;2.02;;;0.90;;
29422;SDS011;16399;51.686;8.684;2022-10-16T10:04:51;6.65;;;1.42;;
29422;SDS011;16399;51.686;8.684;2022-10-16T10:07:58;1.65;;;0.70;;
29422;SDS011;16399;51.686;8.684;2022-10-16T10:11:04;3.05;;;0.90;;
29422;SDS011;16399;51.686;8.684;2022-10-16T10:17:30;5.80;;;1.67;;
29422;SDS011;16399;51.686;8.684;2022-10-16T10:20:33;2.55;;;0.90;;
29422;SDS011;16399;51.686;8.684;2022-10-16T10:23:38;5.50;;;0.62;;
29422;SDS011;16399;51.686;8.684;2022-10-16T10:26:54;2.45;;;0.78;;
29422;SDS011;16399;51.686;8.684;2022-10-16T10:30:02;3.62;;;0.75;;
29422;SDS011;16399;51.686;8.684;2022-10-16T10:33:12;5.05;;;0.72;;
29422;SDS011;16399;51.686;8.684;2022-10-16T10:39:32;3.87;;;0.90;;
29422;SDS011;16399;51.686;8.684;2022-10-16T10:42:34;2.05;;;1.10;;
29422;SDS011;16399;51.686;8.684;2022-10-16T10:45:44;1.00;;;0.78;;
29422;SDS011;16399;51.686;8.684;2022-10-16T10:48:54;4.00;;;0.70;;
29422;SDS011;16399;51.686;8.684;2022-10-16T10:52:02;1.52;;;0.68;;
29422;SDS011;16399;51.686;8.684;2022-10-16T10:55:09;1.82;;;0.88;;
29422;SDS011;16399;51.686;8.684;2022-10-16T11:11:38;2.33;;;0.75;;
29422;SDS011;16399;51.686;8.684;2022-10-16T11:21:10;2.92;;;1.25;;
29422;SDS011;16399;51.686;8.684;2022-10-16T11:24:27;2.95;;;0.75;;
29422;SDS011;16399;51.686;8.684;2022-10-16T11:27:30;2.98;;;0.47;;
29422;SDS011;16399;51.686;8.684;2022-10-16T11:30:47;2.02;;;0.80;;
29422;SDS011;16399;51.686;8.684;2022-10-16T11:34:09;2.05;;;0.65;;
29422;SDS011;16399;51.686;8.684;2022-10-16T11:37:21;3.30;;;0.60;;
29422;SDS011;16399;51.686;8.684;2022-10-16T11:40:36;3.05;;;0.88;;
29422;SDS011;16399;51.686;8.684;2022-10-16T11:43:42;1.80;;;0.55;;
29422;SDS011;16399;51.686;8.684;2022-10-16T11:46:52;3.33;;;0.70;;
29422;SDS011;16399;51.686;8.684;2022-10-16T11:49:58;2.50;;;0.60;;
29422;SDS011;16399;51.686;8.684;2022-10-16T11:53:04;4.00;;;0.47;;
29422;SDS011;16399;51.686;8.684;2022-10-16T11:56:08;1.00;;;0.40;;
29422;SDS011;16399;51.686;8.684;2022-10-16T11:59:22;3.75;;;0.60;;
29422;SDS011;16399;51.686;8.684;2022-10-16T12:09:28;2.20;;;0.60;;
29422;SDS011;16399;51.686;8.684;2022-10-16T12:15:41;3.33;;;0.60;;
29422;SDS011;16399;51.686;8.684;2022-10-16T12:18:44;1.27;;;0.55;;
29422;SDS011;16399;51.686;8.684;2022-10-16T12:21:47;2.25;;;0.57;;
29422;SDS011;16399;51.686;8.684;2022-10-16T12:27:54;5.33;;;0.80;;
29422;SDS011;16399;51.686;8.684;2022-10-16T12:30:59;4.45;;;0.70;;
29422;SDS011;16399;51.686;8.684;2022-10-16T12:34:03;1.87;;;0.60;;
29422;SDS011;16399;51.686;8.684;2022-10-16T12:37:21;2.40;;;0.50;;
29422;SDS011;16399;51.686;8.684;2022-10-16T12:40:27;2.15;;;0.60;;
29422;SDS011;16399;51.686;8.684;2022-10-16T12:43:35;2.05;;;0.50;;
29422;SDS011;16399;51.686;8.684;2022-10-16T12:46:40;1.80;;;0.50;;
29422;SDS011;16399;51.686;8.684;2022-10-16T12:49:48;1.80;;;0.50;;
29422;SDS011;16399;51.686;8.684;2022-10-16T12:52:47;2.17;;;0.80;;
29422;SDS011;16399;51.686;8.684;2022-10-16T13:02:34;4.03;;;0.72;;
29422;SDS011;16399;51.686;8.684;2022-10-16T13:09:07;2.02;;;0.53;;
29422;SDS011;16399;51.686;8.684;2022-10-16T13:16:14;6.03;;;0.70;;
29422;SDS011;16399;51.686;8.684;2022-10-16T13:19:21;4.55;;;0.40;;
29422;SDS011;16399;51.686;8.684;2022-10-16T13:22:33;2.45;;;0.50;;
29422;SDS011;16399;51.686;8.684;2022-10-16T13:25:43;2.52;;;0.60;;
29422;SDS011;16399;51.686;8.684;2022-10-16T13:28:45;0.78;;;0.42;;
29422;SDS011;16399;51.686;8.684;2022-10-16T13:31:48;2.35;;;0.40;;
29422;SDS011;16399;51.686;8.684;2022-10-16T13:34:50;2.62;;;0.90;;
29422;SDS011;16399;51.686;8.684;2022-10-16T13:41:17;3.30;;;0.80;;
29422;SDS011;16399;51.686;8.684;2022-10-16T13:44:20;2.83;;;0.40;;
29422;SDS011;16399;51.686;8.684;2022-10-16T13:47:24;4.53;;;0.60;;
29422;SDS011;16399;51.686;8.684;2022-10-16T13:50:28;0.93;;;0.50;;
29422;SDS011;16399;51.686;8.684;2022-10-16T13:53:34;3.50;;;0.53;;
29422;SDS011;16399;51.686;8.684;2022-10-16T13:56:38;2.35;;;0.70;;
29422;SDS011;16399;51.686;8.684;2022-10-16T13:59:41;1.85;;;0.60;;
29422;SDS011;16399;51.686;8.684;2022-10-16T14:02:44;2.33;;;0.53;;
29422;SDS011;16399;51.686;8.684;2022-10-16T14:05:58;0.70;;;0.50;;
29422;SDS011;16399;51.686;8.684;2022-10-16T14:09:01;2.65;;;0.80;;
29422;SDS011;16399;51.686;8.684;2022-10-16T14:12:10;1.55;;;0.40;;
29422;SDS011;16399;51.686;8.684;2022-10-16T14:15:16;1.15;;;0.50;;
29422;SDS011;16399;51.686;8.684;2022-10-16T14:18:21;6.05;;;0.85;;
29422;SDS011;16399;51.686;8.684;2022-10-16T14:21:25;2.70;;;0.70;;
29422;SDS011;16399;51.686;8.684;2022-10-16T14:24:32;2.37;;;0.90;;
29422;SDS011;16399;51.686;8.684;2022-10-16T14:27:35;2.92;;;0.60;;
29422;SDS011;16399;51.686;8.684;2022-10-16T14:30:48;2.58;;;0.60;;
29422;SDS011;16399;51.686;8.684;2022-10-16T14:34:01;2.22;;;0.53;;
29422;SDS011;16399;51.686;8.684;2022-10-16T14:40:32;1.07;;;0.40;;
29422;SDS011;16399;51.686;8.684;2022-10-16T14:43:39;1.45;;;0.50;;
29422;SDS011;16399;51.686;8.684;2022-10-16T14:46:43;1.35;;;0.60;;
29422;SDS011;16399;51.686;8.684;2022-10-16T14:49:46;2.83;;;0.85;;
29422;SDS011;16399;51.686;8.684;2022-10-16T14:52:49;11.73;;;1.22;;
29422;SDS011;16399;51.686;8.684;2022-10-16T14:55:51;2.87;;;0.65;;
29422;SDS011;16399;51.686;8.684;2022-10-16T14:58:53;1.00;;;0.60;;
29422;SDS011;16399;51.686;8.684;2022-10-16T15:01:57;2.72;;;0.78;;
29422;SDS011;16399;51.686;8.684;2022-10-16T15:05:19;8.05;;;0.70;;
29422;SDS011;16399;51.686;8.684;2022-10-16T15:08:26;2.45;;;0.70;;
29422;SDS011;16399;51.686;8.684;2022-10-16T15:11:28;3.33;;;0.72;;
29422;SDS011;16399;51.686;8.684;2022-10-16T15:14:32;2.57;;;0.80;;
29422;SDS011;16399;51.686;8.684;2022-10-16T15:17:34;3.80;;;1.10;;
29422;SDS011;16399;51.686;8.684;2022-10-16T15:20:38;2.37;;;0.68;;
29422;SDS011;16399;51.686;8.684;2022-10-16T15:23:40;3.25;;;0.60;;
29422;SDS011;16399;51.686;8.684;2022-10-16T15:26:42;5.35;;;1.02;;
29422;SDS011;16399;51.686;8.684;2022-10-16T15:29:46;2.10;;;0.80;;
29422;SDS011;16399;51.686;8.684;2022-10-16T15:32:49;3.35;;;0.72;;
29422;SDS011;16399;51.686;8.684;2022-10-16T15:35:51;2.33;;;0.70;;
29422;SDS011;16399;51.686;8.684;2022-10-16T15:38:54;3.30;;;0.68;;
29422;SDS011;16399;51.686;8.684;2022-10-16T15:41:58;4.42;;;0.80;;
29422;SDS011;16399;51.686;8.684;2022-10-16T15:45:00;3.87;;;0.75;;
29422;SDS011;16399;51.686;8.684;2022-10-16T15:48:03;5.35;;;0.90;;
29422;SDS011;16399;51.686;8.684;2022-10-16T15:51:06;9.10;;;1.00;;
29422;SDS011;16399;51.686;8.684;2022-10-16T15:54:09;3.80;;;0.80;;
29422;SDS011;16399;51.686;8.684;2022-10-16T15:57:11;6.83;;;0.90;;
29422;SDS011;16399;51.686;8.684;2022-10-16T16:00:18;5.45;;;0.93;;
29422;SDS011;16399;51.686;8.684;2022-10-16T16:03:25;5.85;;;0.85;;
29422;SDS011;16399;51.686;8.684;2022-10-16T16:06:28;6.60;;;0.90;;
29422;SDS011;16399;51.686;8.684;2022-10-16T16:09:30;7.12;;;1.00;;
29422;SDS011;16399;51.686;8.684;2022-10-16T16:12:32;5.65;;;1.98;;
29422;SDS011;16399;51.686;8.684;2022-10-16T16:15:38;9.20;;;1.67;;
29422;SDS011;16399;51.686;8.684;2022-10-16T16:18:42;6.72;;;1.60;;
29422;SDS011;16399;51.686;8.684;2022-10-16T16:21:45;9.10;;;2.27;;
29422;SDS011;16399;51.686;8.684;2022-10-16T16:24:48;4.17;;;1.25;;
29422;SDS011;16399;51.686;8.684;2022-10-16T16:27:50;9.40;;;1.67;;
29422;SDS011;16399;51.686;8.684;2022-10-16T16:30:52;7.25;;;1.95;;
29422;SDS011;16399;51.686;8.684;2022-10-16T16:33:55;5.75;;;0.98;;
29422;SDS011;16399;51.686;8.684;2022-10-16T16:36:58;5.65;;;0.98;;
29422;SDS011;16399;51.686;8.684;2022-10-16T16:40:00;6.83;;;3.55;;
29422;SDS011;16399;51.686;8.684;2022-10-16T16:43:03;7.85;;;1.37;;
29422;SDS011;16399;51.686;8.684;2022-10-16T16:46:05;4.25;;;1.15;;
29422;SDS011;16399;51.686;8.684;2022-10-16T16:49:09;2.15;;;0.80;;
29422;SDS011;16399;51.686;8.684;2022-10-16T16:52:13;6.78;;;2.10;;
29422;SDS011;16399;51.686;8.684;2022-10-16T16:55:15;2.52;;;1.10;;
29422;SDS011;16399;51.686;8.684;2022-10-16T16:58:18;5.37;;;0.90;;
29422;SDS011;16399;51.686;8.684;2022-10-16T17:01:20;5.97;;;1.00;;
29422;SDS011;16399;51.686;8.684;2022-10-16T17:04:25;4.55;;;1.12;;
29422;SDS011;16399;51.686;8.684;2022-10-16T17:07:30;3.65;;;0.80;;
29422;SDS011;16399;51.686;8.684;2022-10-16T17:10:41;2.85;;;1.07;;
29422;SDS011;16399;51.686;8.684;2022-10-16T17:13:39;2.70;;;1.10;;
29422;SDS011;16399;51.686;8.684;2022-10-16T17:16:42;4.78;;;0.90;;
29422;SDS011;16399;51.686;8.684;2022-10-16T17:19:44;6.42;;;1.92;;
29422;SDS011;16399;51.686;8.684;2022-10-16T17:22:46;5.08;;;1.60;;
29422;SDS011;16399;51.686;8.684;2022-10-16T17:25:49;5.50;;;1.27;;
29422;SDS011;16399;51.686;8.684;2022-10-16T17:28:55;4.37;;;1.40;;
29422;SDS011;16399;51.686;8.684;2022-10-16T17:31:59;6.28;;;1.40;;
29422;SDS011;16399;51.686;8.684;2022-10-16T17:35:01;4.05;;;1.37;;
29422;SDS011;16399;51.686;8.684;2022-10-16T17:38:04;6.55;;;1.00;;
29422;SDS011;16399;51.686;8.684;2022-10-16T17:41:10;5.22;;;1.40;;
29422;SDS011;16399;51.686;8.684;2022-10-16T17:44:14;5.65;;;1.47;;
29422;SDS011;16399;51.686;8.684;2022-10-16T17:47:19;3.58;;;1.22;;
29422;SDS011;16399;51.686;8.684;2022-10-16T17:50:22;3.17;;;1.10;;
29422;SDS011;16399;51.686;8.684;2022-10-16T17:53:24;3.35;;;1.07;;
29422;SDS011;16399;51.686;8.684;2022-10-16T17:56:27;8.18;;;1.62;;
29422;SDS011;16399;51.686;8.684;2022-10-16T17:59:30;6.35;;;1.20;;
29422;SDS011;16399;51.686;8.684;2022-10-16T18:02:32;11.70;;;1.67;;
29422;SDS011;16399;51.686;8.684;2022-10-16T18:05:36;7.00;;;1.77;;
29422;SDS011;16399;51.686;8.684;2022-10-16T18:08:39;9.53;;;1.90;;
29422;SDS011;16399;51.686;8.684;2022-10-16T18:11:41;6.28;;;1.92;;
29422;SDS011;16399;51.686;8.684;2022-10-16T18:14:43;6.75;;;1.70;;
29422;SDS011;16399;51.686;8.684;2022-10-16T18:17:45;6.72;;;1.72;;
29422;SDS011;16399;51.686;8.684;2022-10-16T18:20:55;3.47;;;1.40;;
29422;SDS011;16399;51.686;8.684;2022-10-16T18:23:58;7.53;;;1.65;;
29422;SDS011;16399;51.686;8.684;2022-10-16T18:27:01;6.05;;;1.70;;
29422;SDS011;16399;51.686;8.684;2022-10-16T18:30:03;5.87;;;2.00;;
29422;SDS011;16399;51.686;8.684;2022-10-16T18:33:06;3.37;;;1.30;;
29422;SDS011;16399;51.686;8.684;2022-10-16T18:36:10;5.78;;;1.50;;
29422;SDS011;16399;51.686;8.684;2022-10-16T18:39:12;2.80;;;1.30;;
29422;SDS011;16399;51.686;8.684;2022-10-16T18:42:17;4.28;;;1.27;;
29422;SDS011;16399;51.686;8.684;2022-10-16T18:45:20;5.45;;;1.35;;
29422;SDS011;16399;51.686;8.684;2022-10-16T18:48:22;7.10;;;1.27;;
29422;SDS011;16399;51.686;8.684;2022-10-16T18:51:26;3.22;;;1.17;;
29422;SDS011;16399;51.686;8.684;2022-10-16T18:54:30;4.53;;;1.17;;
29422;SDS011;16399;51.686;8.684;2022-10-16T18:57:33;5.97;;;1.77;;
29422;SDS011;16399;51.686;8.684;2022-10-16T19:00:35;4.30;;;1.50;;
29422;SDS011;16399;51.686;8.684;2022-10-16T19:03:37;6.40;;;1.55;;
29422;SDS011;16399;51.686;8.684;2022-10-16T19:06:42;5.60;;;1.37;;
29422;SDS011;16399;51.686;8.684;2022-10-16T19:09:46;6.70;;;1.50;;
29422;SDS011;16399;51.686;8.684;2022-10-16T19:12:48;5.97;;;2.12;;
29422;SDS011;16399;51.686;8.684;2022-10-16T19:15:50;5.75;;;1.27;;
29422;SDS011;16399;51.686;8.684;2022-10-16T19:18:53;4.20;;;1.10;;
29422;SDS011;16399;51.686;8.684;2022-10-16T19:21:57;3.05;;;1.02;;
29422;SDS011;16399;51.686;8.684;2022-10-16T19:25:13;4.22;;;1.10;;
29422;SDS011;16399;51.686;8.684;2022-10-16T19:28:15;6.72;;;1.25;;
29422;SDS011;16399;51.686;8.684;2022-10-16T19:31:18;4.37;;;1.10;;
29422;SDS011;16399;51.686;8.684;2022-10-16T19:34:22;3.92;;;1.07;;
29422;SDS011;16399;51.686;8.684;2022-10-16T19:37:24;4.40;;;1.00;;
29422;SDS011;16399;51.686;8.684;2022-10-16T19:40:27;3.72;;;0.88;;
29422;SDS011;16399;51.686;8.684;2022-10-16T19:43:29;4.40;;;1.00;;
29422;SDS011;16399;51.686;8.684;2022-10-16T19:46:32;2.65;;;1.10;;
29422;SDS011;16399;51.686;8.684;2022-10-16T19:49:35;5.60;;;1.17;;
29422;SDS011;16399;51.686;8.684;2022-10-16T19:52:38;5.10;;;1.00;;
29422;SDS011;16399;51.686;8.684;2022-10-16T19:55:40;4.65;;;1.20;;
29422;SDS011;16399;51.686;8.684;2022-10-16T19:58:42;6.35;;;0.95;;
29422;SDS011;16399;51.686;8.684;2022-10-16T20:01:46;3.42;;;1.00;;
29422;SDS011;16399;51.686;8.684;2022-10-16T20:04:48;2.25;;;1.10;;